Sabinal — WDC2725 — position and weather

sailwx.info

Track history (hours):
 
Tides and Currents Weather Stations Pressure Air Temp Water Temp Dewpoint Dewpoint Depression Visibility Wind Speed Wind Dir Waves Ship Positions

Sabinal

Owner: Kirby Inland Marine, LP, Houston, TX. More information available from US FCC via Universal Licensing System and Coast Guard Vessel Documentation Center.

Last reported at 2017-Nov-20 00:30 UTC. Time now 2017-Nov-22 09:23 UTC.
Position N 29°34' W 094°55'.

Length 107 m; draft 3 m.

Type: . MMSI: 366996840.

Date/timePositionNaut miles runAvg speedWind from/ knotsBaromVisibWave heightAir tempDewpointWater temp
2017-Nov-20 00:30N 29°34' W 094°55'2 4.3
2017-Nov-20 00:00N 29°36' W 094°57'3 4.7
2017-Nov-19 23:16N 29°39' W 094°58'1 5.0
2017-Nov-19 22:59N 29°40' W 094°59'2 4.9
2017-Nov-19 22:30N 29°42' W 095°00'6 4.3
2017-Nov-19 21:12N 29°46' W 095°06'0 0.2
2017-Nov-19 21:00N 29°46' W 095°06'0 0.0
2017-Nov-19 20:30N 29°46' W 095°06'3 0.8
2017-Nov-19 16:14N 29°44' W 095°09'4 0.1
2017-Nov-18 02:40N 29°45' W 095°06'1 0.3
2017-Nov-18 00:55N 29°46' W 095°05'3 6.9
2017-Nov-18 00:30N 29°44' W 095°03'3 0.7
2017-Nov-17 19:47N 29°47' W 095°04'2 0.2
2017-Nov-17 10:07N 29°45' W 095°06'0 0.0
2017-Nov-17 09:52N 29°45' W 095°06'1 0.5
2017-Nov-17 08:43N 29°46' W 095°05'1 4.3
2017-Nov-17 08:23N 29°47' W 095°04'0 0.0
2017-Nov-17 08:00N 29°47' W 095°04'1 0.3
2017-Nov-17 03:42N 29°46' W 095°05'1 1.6
2017-Nov-17 03:21N 29°45' W 095°06'1 0.2
2017-Nov-17 00:30N 29°46' W 095°05'1 0.3
2017-Nov-16 21:12N 29°46' W 095°07'1 1.9
2017-Nov-16 20:45N 29°46' W 095°06'0 1.1
2017-Nov-16 20:27N 29°46' W 095°05'2 4.2
2017-Nov-16 19:56N 29°44' W 095°03'1 1.4
2017-Nov-16 19:31N 29°44' W 095°03'0 0.1
2017-Nov-16 19:00N 29°44' W 095°03'0 0.0
2017-Nov-16 18:29N 29°44' W 095°03'0 0.0
2017-Nov-16 17:59N 29°44' W 095°03'0 0.0
2017-Nov-16 17:29N 29°44' W 095°03'0 0.0
2017-Nov-16 16:59N 29°44' W 095°03'0 0.0
2017-Nov-16 16:26N 29°44' W 095°03'0 0.0
2017-Nov-16 15:59N 29°44' W 095°03'0 0.0
2017-Nov-16 15:26N 29°44' W 095°03'0 0.0
2017-Nov-16 14:59N 29°44' W 095°03'0 0.0
2017-Nov-16 14:26N 29°44' W 095°03'0 0.0
2017-Nov-16 13:50N 29°44' W 095°03'0 0.0
2017-Nov-16 13:29N 29°44' W 095°03'0 0.0
2017-Nov-16 12:50N 29°44' W 095°03'0 0.0
2017-Nov-16 11:56N 29°44' W 095°03'0 0.0
2017-Nov-16 11:23N 29°44' W 095°03'0 0.0
2017-Nov-16 10:56N 29°44' W 095°03'0 0.0
2017-Nov-16 10:26N 29°44' W 095°03'0 0.0
2017-Nov-16 09:59N 29°44' W 095°03'0 0.0
2017-Nov-16 09:26N 29°44' W 095°03'0 0.0
2017-Nov-16 08:50N 29°44' W 095°03'0 0.0
2017-Nov-16 08:26N 29°44' W 095°03'0 0.0
2017-Nov-16 07:59N 29°44' W 095°03'0 0.1
2017-Nov-16 07:30N 29°44' W 095°03'0 0.1
2017-Nov-16 07:00N 29°44' W 095°03'3 0.9
2017-Nov-16 03:28N 29°47' W 095°04'2 5.2
2017-Nov-16 03:00N 29°45' W 095°06'1 0.1
2017-Nov-15 15:06N 29°46' W 095°05'1 4.2
2017-Nov-15 14:54N 29°46' W 095°04'2 4.3
2017-Nov-15 14:30N 29°44' W 095°03'2 4.1
2017-Nov-15 14:00N 29°43' W 095°01'2 2.8
2017-Nov-15 13:19N 29°43' W 095°03'0 0.0
2017-Nov-15 10:54N 29°43' W 095°03'0 0.0
2017-Nov-15 10:30N 29°43' W 095°03'0 0.0
2017-Nov-15 10:00N 29°43' W 095°03'0 0.0
2017-Nov-15 09:30N 29°43' W 095°03'0 0.0
2017-Nov-15 09:00N 29°43' W 095°03'0 0.0
2017-Nov-15 08:30N 29°43' W 095°03'0 0.0
2017-Nov-15 08:00N 29°43' W 095°03'0 0.0
2017-Nov-15 07:30N 29°43' W 095°03'0 0.0
2017-Nov-15 07:00N 29°43' W 095°03'0 0.0
2017-Nov-15 06:30N 29°43' W 095°03'0 0.0
2017-Nov-15 06:00N 29°43' W 095°03'0 0.0
2017-Nov-15 05:30N 29°43' W 095°03'0 0.0
2017-Nov-15 05:00N 29°43' W 095°03'0 0.0
2017-Nov-15 04:30N 29°43' W 095°03'0 0.0
2017-Nov-15 04:00N 29°43' W 095°03'0 0.0
2017-Nov-15 03:30N 29°43' W 095°03'0 0.0
2017-Nov-15 03:00N 29°43' W 095°03'0 0.0
2017-Nov-15 02:30N 29°43' W 095°03'0 0.0
2017-Nov-15 02:00N 29°43' W 095°03'0 0.0
2017-Nov-15 01:30N 29°43' W 095°03'0 0.0
2017-Nov-15 00:59N 29°43' W 095°03'0 0.0
2017-Nov-15 00:29N 29°43' W 095°03'0 0.0
2017-Nov-15 00:00N 29°43' W 095°03'0 0.0
2017-Nov-14 23:30N 29°43' W 095°03'2 3.0
2017-Nov-14 22:56N 29°44' W 095°02'1 1.3
2017-Nov-14 22:00N 29°44' W 095°03'0 0.2
2017-Nov-14 21:30N 29°44' W 095°03'0 0.0
2017-Nov-14 21:00N 29°44' W 095°03'0 0.0
2017-Nov-14 20:30N 29°44' W 095°03'0 0.0
2017-Nov-14 20:00N 29°44' W 095°03'3 0.5
2017-Nov-14 14:40N 29°46' W 095°05'1 0.2
2017-Nov-14 10:13N 29°46' W 095°04'1 6.7
2017-Nov-14 10:00N 29°44' W 095°03'3 5.7
2017-Nov-14 09:30N 29°42' W 095°01'3 6.4
2017-Nov-14 09:00N 29°40' W 094°58'3 6.4
2017-Nov-14 08:30N 29°37' W 094°58'2 4.8
2017-Nov-14 08:00N 29°37' W 095°00'0 0.0
2017-Nov-14 07:29N 29°37' W 095°00'0 0.0
2017-Nov-14 06:53N 29°37' W 095°00'0 0.0
2017-Nov-14 06:29N 29°37' W 095°00'0 0.0
2017-Nov-14 05:59N 29°37' W 095°00'0 0.0
2017-Nov-14 05:29N 29°37' W 095°00'0 0.0
2017-Nov-14 04:53N 29°37' W 095°00'0 0.0
2017-Nov-14 04:29N 29°37' W 095°00'0 0.0
2017-Nov-14 03:59N 29°37' W 095°00'0 0.0
2017-Nov-14 03:29N 29°37' W 095°00'0 0.0
2017-Nov-14 02:59N 29°37' W 095°00'0 0.0
2017-Nov-14 02:29N 29°37' W 095°00'0 0.0
2017-Nov-14 01:59N 29°37' W 095°00'0 0.0
2017-Nov-14 01:29N 29°37' W 095°00'0 0.0
2017-Nov-14 00:55N 29°37' W 095°00'0 0.0
2017-Nov-14 00:28N 29°37' W 095°00'0 0.0
2017-Nov-13 23:58N 29°37' W 095°00'0 0.0
2017-Nov-13 23:28N 29°37' W 095°00'0 0.0
2017-Nov-13 22:58N 29°37' W 095°00'0 0.0
2017-Nov-13 22:28N 29°37' W 095°00'0 0.0
2017-Nov-13 21:58N 29°37' W 095°00'8 0.3
2017-Nov-12 21:35N 29°44' W 095°03'0 0.1
2017-Nov-12 21:30N 29°44' W 095°03'0 0.0
2017-Nov-12 20:57N 29°44' W 095°03'0 0.0
2017-Nov-12 20:30N 29°44' W 095°03'0 0.0
2017-Nov-12 20:00N 29°44' W 095°03'0 0.0
2017-Nov-12 19:28N 29°44' W 095°03'3 0.2
2017-Nov-12 05:29N 29°46' W 095°06'0 0.0
2017-Nov-12 04:59N 29°46' W 095°06'0 0.0
2017-Nov-12 04:11N 29°46' W 095°06'0 0.0
2017-Nov-12 03:59N 29°46' W 095°06'0 0.0
2017-Nov-11 07:28N 29°46' W 095°06'1 0.1
2017-Nov-10 14:14N 29°46' W 095°04'2 5.5
2017-Nov-10 13:58N 29°44' W 095°03'2 0.5
2017-Nov-10 10:02N 29°44' W 095°01'0 3.0
2017-Nov-10 09:57N 29°44' W 095°02'4 5.1
2017-Nov-10 09:11N 29°45' W 095°05'2 5.4
2017-Nov-10 08:49N 29°44' W 095°07'1 4.9
2017-Nov-10 08:30N 29°44' W 095°09'1 0.8
2017-Nov-10 06:57N 29°45' W 095°10'2 4.2
2017-Nov-10 06:30N 29°44' W 095°08'3 5.7
2017-Nov-10 05:56N 29°46' W 095°05'1 2.5
2017-Nov-10 05:24N 29°47' W 095°04'4 2.2
2017-Nov-10 03:23N 29°44' W 095°08'2 6.2
2017-Nov-10 03:00N 29°45' W 095°11'2 0.7
2017-Nov-10 00:46N 29°44' W 095°12'  
Track history (hours):
 
Tides and Currents Weather Stations Pressure Air Temp Water Temp Dewpoint Dewpoint Depression Visibility Wind Speed Wind Dir Waves Ship Positions

Sabinal

Owner: Kirby Inland Marine, LP, Houston, TX. More information available from US FCC via Universal Licensing System and Coast Guard Vessel Documentation Center.

Last reported at 2017-Nov-20 00:30 UTC. Time now 2017-Nov-22 09:23 UTC.
Position N 29°34' W 094°55'.

Length 107 m; draft 3 m.

Type: . MMSI: 366996840.

Date/timePositionNaut miles runAvg speedWind from/ knotsBaromVisibWave heightAir tempDewpointWater temp
2017-Nov-20 00:30N 29°34' W 094°55'2 4.3
2017-Nov-20 00:00N 29°36' W 094°57'3 4.7
2017-Nov-19 23:16N 29°39' W 094°58'1 5.0
2017-Nov-19 22:59N 29°40' W 094°59'2 4.9
2017-Nov-19 22:30N 29°42' W 095°00'6 4.3
2017-Nov-19 21:12N 29°46' W 095°06'0 0.2
2017-Nov-19 21:00N 29°46' W 095°06'0 0.0
2017-Nov-19 20:30N 29°46' W 095°06'3 0.8
2017-Nov-19 16:14N 29°44' W 095°09'4 0.1
2017-Nov-18 02:40N 29°45' W 095°06'1 0.3
2017-Nov-18 00:55N 29°46' W 095°05'3 6.9
2017-Nov-18 00:30N 29°44' W 095°03'3 0.7
2017-Nov-17 19:47N 29°47' W 095°04'2 0.2
2017-Nov-17 10:07N 29°45' W 095°06'0 0.0
2017-Nov-17 09:52N 29°45' W 095°06'1 0.5
2017-Nov-17 08:43N 29°46' W 095°05'1 4.3
2017-Nov-17 08:23N 29°47' W 095°04'0 0.0
2017-Nov-17 08:00N 29°47' W 095°04'1 0.3
2017-Nov-17 03:42N 29°46' W 095°05'1 1.6
2017-Nov-17 03:21N 29°45' W 095°06'1 0.2
2017-Nov-17 00:30N 29°46' W 095°05'1 0.3
2017-Nov-16 21:12N 29°46' W 095°07'1 1.9
2017-Nov-16 20:45N 29°46' W 095°06'0 1.1
2017-Nov-16 20:27N 29°46' W 095°05'2 4.2
2017-Nov-16 19:56N 29°44' W 095°03'1 1.4
2017-Nov-16 19:31N 29°44' W 095°03'0 0.1
2017-Nov-16 19:00N 29°44' W 095°03'0 0.0
2017-Nov-16 18:29N 29°44' W 095°03'0 0.0
2017-Nov-16 17:59N 29°44' W 095°03'0 0.0
2017-Nov-16 17:29N 29°44' W 095°03'0 0.0
2017-Nov-16 16:59N 29°44' W 095°03'0 0.0
2017-Nov-16 16:26N 29°44' W 095°03'0 0.0
2017-Nov-16 15:59N 29°44' W 095°03'0 0.0
2017-Nov-16 15:26N 29°44' W 095°03'0 0.0
2017-Nov-16 14:59N 29°44' W 095°03'0 0.0
2017-Nov-16 14:26N 29°44' W 095°03'0 0.0
2017-Nov-16 13:50N 29°44' W 095°03'0 0.0
2017-Nov-16 13:29N 29°44' W 095°03'0 0.0
2017-Nov-16 12:50N 29°44' W 095°03'0 0.0
2017-Nov-16 11:56N 29°44' W 095°03'0 0.0
2017-Nov-16 11:23N 29°44' W 095°03'0 0.0
2017-Nov-16 10:56N 29°44' W 095°03'0 0.0
2017-Nov-16 10:26N 29°44' W 095°03'0 0.0
2017-Nov-16 09:59N 29°44' W 095°03'0 0.0
2017-Nov-16 09:26N 29°44' W 095°03'0 0.0
2017-Nov-16 08:50N 29°44' W 095°03'0 0.0
2017-Nov-16 08:26N 29°44' W 095°03'0 0.0
2017-Nov-16 07:59N 29°44' W 095°03'0 0.1
2017-Nov-16 07:30N 29°44' W 095°03'0 0.1
2017-Nov-16 07:00N 29°44' W 095°03'3 0.9
2017-Nov-16 03:28N 29°47' W 095°04'2 5.2
2017-Nov-16 03:00N 29°45' W 095°06'1 0.1
2017-Nov-15 15:06N 29°46' W 095°05'1 4.2
2017-Nov-15 14:54N 29°46' W 095°04'2 4.3
2017-Nov-15 14:30N 29°44' W 095°03'2 4.1
2017-Nov-15 14:00N 29°43' W 095°01'2 2.8
2017-Nov-15 13:19N 29°43' W 095°03'0 0.0
2017-Nov-15 10:54N 29°43' W 095°03'0 0.0
2017-Nov-15 10:30N 29°43' W 095°03'0 0.0
2017-Nov-15 10:00N 29°43' W 095°03'0 0.0
2017-Nov-15 09:30N 29°43' W 095°03'0 0.0
2017-Nov-15 09:00N 29°43' W 095°03'0 0.0
2017-Nov-15 08:30N 29°43' W 095°03'0 0.0
2017-Nov-15 08:00N 29°43' W 095°03'0 0.0
2017-Nov-15 07:30N 29°43' W 095°03'0 0.0
2017-Nov-15 07:00N 29°43' W 095°03'0 0.0
2017-Nov-15 06:30N 29°43' W 095°03'0 0.0
2017-Nov-15 06:00N 29°43' W 095°03'0 0.0
2017-Nov-15 05:30N 29°43' W 095°03'0 0.0
2017-Nov-15 05:00N 29°43' W 095°03'0 0.0
2017-Nov-15 04:30N 29°43' W 095°03'0 0.0
2017-Nov-15 04:00N 29°43' W 095°03'0 0.0
2017-Nov-15 03:30N 29°43' W 095°03'0 0.0
2017-Nov-15 03:00N 29°43' W 095°03'0 0.0
2017-Nov-15 02:30N 29°43' W 095°03'0 0.0
2017-Nov-15 02:00N 29°43' W 095°03'0 0.0
2017-Nov-15 01:30N 29°43' W 095°03'0 0.0
2017-Nov-15 00:59N 29°43' W 095°03'0 0.0
2017-Nov-15 00:29N 29°43' W 095°03'0 0.0
2017-Nov-15 00:00N 29°43' W 095°03'0 0.0
2017-Nov-14 23:30N 29°43' W 095°03'2 3.0
2017-Nov-14 22:56N 29°44' W 095°02'1 1.3
2017-Nov-14 22:00N 29°44' W 095°03'0 0.2
2017-Nov-14 21:30N 29°44' W 095°03'0 0.0
2017-Nov-14 21:00N 29°44' W 095°03'0 0.0
2017-Nov-14 20:30N 29°44' W 095°03'0 0.0
2017-Nov-14 20:00N 29°44' W 095°03'3 0.5
2017-Nov-14 14:40N 29°46' W 095°05'1 0.2
2017-Nov-14 10:13N 29°46' W 095°04'1 6.7
2017-Nov-14 10:00N 29°44' W 095°03'3 5.7
2017-Nov-14 09:30N 29°42' W 095°01'3 6.4
2017-Nov-14 09:00N 29°40' W 094°58'3 6.4
2017-Nov-14 08:30N 29°37' W 094°58'2 4.8
2017-Nov-14 08:00N 29°37' W 095°00'0 0.0
2017-Nov-14 07:29N 29°37' W 095°00'0 0.0
2017-Nov-14 06:53N 29°37' W 095°00'0 0.0
2017-Nov-14 06:29N 29°37' W 095°00'0 0.0
2017-Nov-14 05:59N 29°37' W 095°00'0 0.0
2017-Nov-14 05:29N 29°37' W 095°00'0 0.0
2017-Nov-14 04:53N 29°37' W 095°00'0 0.0
2017-Nov-14 04:29N 29°37' W 095°00'0 0.0
2017-Nov-14 03:59N 29°37' W 095°00'0 0.0
2017-Nov-14 03:29N 29°37' W 095°00'0 0.0
2017-Nov-14 02:59N 29°37' W 095°00'0 0.0
2017-Nov-14 02:29N 29°37' W 095°00'0 0.0
2017-Nov-14 01:59N 29°37' W 095°00'0 0.0
2017-Nov-14 01:29N 29°37' W 095°00'0 0.0
2017-Nov-14 00:55N 29°37' W 095°00'0 0.0
2017-Nov-14 00:28N 29°37' W 095°00'0 0.0
2017-Nov-13 23:58N 29°37' W 095°00'0 0.0
2017-Nov-13 23:28N 29°37' W 095°00'0 0.0
2017-Nov-13 22:58N 29°37' W 095°00'0 0.0
2017-Nov-13 22:28N 29°37' W 095°00'0 0.0
2017-Nov-13 21:58N 29°37' W 095°00'8 0.3
2017-Nov-12 21:35N 29°44' W 095°03'0 0.1
2017-Nov-12 21:30N 29°44' W 095°03'0 0.0
2017-Nov-12 20:57N 29°44' W 095°03'0 0.0
2017-Nov-12 20:30N 29°44' W 095°03'0 0.0
2017-Nov-12 20:00N 29°44' W 095°03'0 0.0
2017-Nov-12 19:28N 29°44' W 095°03'3 0.2
2017-Nov-12 05:29N 29°46' W 095°06'0 0.0
2017-Nov-12 04:59N 29°46' W 095°06'0 0.0
2017-Nov-12 04:11N 29°46' W 095°06'0 0.0
2017-Nov-12 03:59N 29°46' W 095°06'0 0.0
2017-Nov-11 07:28N 29°46' W 095°06'1 0.1
2017-Nov-10 14:14N 29°46' W 095°04'2 5.5
2017-Nov-10 13:58N 29°44' W 095°03'2 0.5
2017-Nov-10 10:02N 29°44' W 095°01'0 3.0
2017-Nov-10 09:57N 29°44' W 095°02'4 5.1
2017-Nov-10 09:11N 29°45' W 095°05'2 5.4
2017-Nov-10 08:49N 29°44' W 095°07'1 4.9
2017-Nov-10 08:30N 29°44' W 095°09'1 0.8
2017-Nov-10 06:57N 29°45' W 095°10'2 4.2
2017-Nov-10 06:30N 29°44' W 095°08'3 5.7
2017-Nov-10 05:56N 29°46' W 095°05'1 2.5
2017-Nov-10 05:24N 29°47' W 095°04'4 2.2
2017-Nov-10 03:23N 29°44' W 095°08'2 6.2
2017-Nov-10 03:00N 29°45' W 095°11'2 0.7
2017-Nov-10 00:46N 29°44' W 095°12'  

Dump ship's entire track history